sensor_id;sensor_type;location;lat;lon;timestamp;pressure;altitude;pressure_sealevel;temperature
28803;BMP280;15949;55.656;37.422;2022-08-30T00:01:29;98758.19;;;17.68
28803;BMP280;15949;55.656;37.422;2022-08-30T00:06:35;98751.09;;;17.65
28803;BMP280;15949;55.656;37.422;2022-08-30T00:11:40;98752.81;;;17.68
28803;BMP280;15949;55.656;37.422;2022-08-30T00:16:46;98749.13;;;17.65
28803;BMP280;15949;55.656;37.422;2022-08-30T00:21:51;98744.75;;;17.62
28803;BMP280;15949;55.656;37.422;2022-08-30T00:26:57;98754.03;;;17.61
28803;BMP280;15949;55.656;37.422;2022-08-30T00:32:03;98757.97;;;17.60
28803;BMP280;15949;55.656;37.422;2022-08-30T00:37:08;98745.00;;;17.59
28803;BMP280;15949;55.656;37.422;2022-08-30T00:42:16;98745.00;;;17.59
28803;BMP280;15949;55.656;37.422;2022-08-30T00:47:22;98756.00;;;17.61
28803;BMP280;15949;55.656;37.422;2022-08-30T00:52:27;98739.38;;;17.62
28803;BMP280;15949;55.656;37.422;2022-08-30T00:57:33;98736.44;;;17.66
28803;BMP280;15949;55.656;37.422;2022-08-30T01:02:40;98735.91;;;17.67
28803;BMP280;15949;55.656;37.422;2022-08-30T01:07:45;98725.44;;;17.64
28803;BMP280;15949;55.656;37.422;2022-08-30T01:12:51;98720.50;;;17.68
28803;BMP280;15949;55.656;37.422;2022-08-30T01:17:57;98728.81;;;17.70
28803;BMP280;15949;55.656;37.422;2022-08-30T01:23:12;98723.19;;;17.68
28803;BMP280;15949;55.656;37.422;2022-08-30T01:28:21;98723.88;;;17.74
28803;BMP280;15949;55.656;37.422;2022-08-30T01:33:27;98720.25;;;17.77
28803;BMP280;15949;55.656;37.422;2022-08-30T01:43:44;98739.09;;;17.77
28803;BMP280;15949;55.656;37.422;2022-08-30T01:48:52;98739.78;;;17.78
28803;BMP280;15949;55.656;37.422;2022-08-30T01:53:58;98731.97;;;17.80
28803;BMP280;15949;55.656;37.422;2022-08-30T01:59:04;98721.94;;;17.69
28803;BMP280;15949;55.656;37.422;2022-08-30T02:04:10;98723.94;;;17.63
28803;BMP280;15949;55.656;37.422;2022-08-30T02:09:17;98719.78;;;17.56
28803;BMP280;15949;55.656;37.422;2022-08-30T02:14:23;98725.94;;;17.46
28803;BMP280;15949;55.656;37.422;2022-08-30T02:19:29;98729.88;;;17.33
28803;BMP280;15949;55.656;37.422;2022-08-30T02:24:34;98726.94;;;17.31
28803;BMP280;15949;55.656;37.422;2022-08-30T02:29:40;98733.56;;;17.30
28803;BMP280;15949;55.656;37.422;2022-08-30T02:34:46;98735.25;;;17.22
28803;BMP280;15949;55.656;37.422;2022-08-30T02:39:51;98736.25;;;17.19
28803;BMP280;15949;55.656;37.422;2022-08-30T02:44:57;98736.25;;;17.13
28803;BMP280;15949;55.656;37.422;2022-08-30T02:50:04;98749.00;;;17.13
28803;BMP280;15949;55.656;37.422;2022-08-30T02:55:10;98744.59;;;17.10
28803;BMP280;15949;55.656;37.422;2022-08-30T03:00:19;98742.13;;;17.12
28803;BMP280;15949;55.656;37.422;2022-08-30T03:05:25;98737.75;;;17.09
28803;BMP280;15949;55.656;37.422;2022-08-30T03:10:30;98744.59;;;17.10
28803;BMP280;15949;55.656;37.422;2022-08-30T03:15:39;98738.00;;;17.16
28803;BMP280;15949;55.656;37.422;2022-08-30T03:20:45;98732.84;;;17.13
28803;BMP280;15949;55.656;37.422;2022-08-30T03:25:51;98746.75;;;17.23
28803;BMP280;15949;55.656;37.422;2022-08-30T03:30:57;98747.03;;;17.30
28803;BMP280;15949;55.656;37.422;2022-08-30T03:36:03;98748.72;;;17.33
28803;BMP280;15949;55.656;37.422;2022-08-30T03:41:09;98747.72;;;17.42
28803;BMP280;15949;55.656;37.422;2022-08-30T03:46:15;98750.16;;;17.46
28803;BMP280;15949;55.656;37.422;2022-08-30T03:51:22;98751.63;;;17.52
28803;BMP280;15949;55.656;37.422;2022-08-30T03:56:27;98754.56;;;17.60
28803;BMP280;15949;55.656;37.422;2022-08-30T04:01:33;98761.16;;;17.59
28803;BMP280;15949;55.656;37.422;2022-08-30T04:06:39;98765.56;;;17.62
28803;BMP280;15949;55.656;37.422;2022-08-30T04:11:44;98760.19;;;17.62
28803;BMP280;15949;55.656;37.422;2022-08-30T04:16:50;98755.72;;;17.70
28803;BMP280;15949;55.656;37.422;2022-08-30T04:21:56;98758.44;;;17.76
28803;BMP280;15949;55.656;37.422;2022-08-30T04:27:01;98764.28;;;17.80
28803;BMP280;15949;55.656;37.422;2022-08-30T04:32:07;98765.47;;;17.90
28803;BMP280;15949;55.656;37.422;2022-08-30T04:37:12;98763.50;;;17.90
28803;BMP280;15949;55.656;37.422;2022-08-30T04:42:18;98763.22;;;18.00
28803;BMP280;15949;55.656;37.422;2022-08-30T04:47:24;98761.47;;;18.08
28803;BMP280;15949;55.656;37.422;2022-08-30T04:52:30;98765.63;;;18.14
28803;BMP280;15949;55.656;37.422;2022-08-30T04:57:37;98756.53;;;18.23
28803;BMP280;15949;55.656;37.422;2022-08-30T05:02:43;98744.94;;;18.34
28803;BMP280;15949;55.656;37.422;2022-08-30T05:07:48;98749.53;;;18.44
28803;BMP280;15949;55.656;37.422;2022-08-30T05:12:54;98754.88;;;18.56
28803;BMP280;15949;55.656;37.422;2022-08-30T05:17:59;98757.69;;;18.69
28803;BMP280;15949;55.656;37.422;2022-08-30T05:23:05;98760.72;;;18.90
28803;BMP280;15949;55.656;37.422;2022-08-30T05:28:11;98770.69;;;19.01
28803;BMP280;15949;55.656;37.422;2022-08-30T05:33:17;98768.91;;;19.09
28803;BMP280;15949;55.656;37.422;2022-08-30T05:38:22;98766.34;;;19.22
28803;BMP280;15949;55.656;37.422;2022-08-30T05:43:28;98767.91;;;19.36
28803;BMP280;15949;55.656;37.422;2022-08-30T05:48:34;98763.53;;;19.58
28803;BMP280;15949;55.656;37.422;2022-08-30T05:53:41;98760.56;;;19.80
28803;BMP280;15949;55.656;37.422;2022-08-30T05:58:47;98761.09;;;19.97
28803;BMP280;15949;55.656;37.422;2022-08-30T06:03:54;98772.19;;;20.13
28803;BMP280;15949;55.656;37.422;2022-08-30T06:09:00;98763.88;;;20.30
28803;BMP280;15949;55.656;37.422;2022-08-30T06:14:06;98772.38;;;20.53
28803;BMP280;15949;55.656;37.422;2022-08-30T06:19:13;98769.91;;;20.68
28803;BMP280;15949;55.656;37.422;2022-08-30T06:24:19;98771.63;;;20.84
28803;BMP280;15949;55.656;37.422;2022-08-30T06:29:24;98777.91;;;21.06
28803;BMP280;15949;55.656;37.422;2022-08-30T06:34:30;98768.03;;;21.21
28803;BMP280;15949;55.656;37.422;2022-08-30T06:39:36;98771.50;;;21.48
28803;BMP280;15949;55.656;37.422;2022-08-30T06:44:41;98780.28;;;21.75
28803;BMP280;15949;55.656;37.422;2022-08-30T06:49:47;98772.16;;;22.09
28803;BMP280;15949;55.656;37.422;2022-08-30T06:54:54;98775.06;;;22.46
28803;BMP280;15949;55.656;37.422;2022-08-30T07:00:05;98780.72;;;22.55
28803;BMP280;15949;55.656;37.422;2022-08-30T07:05:11;98774.41;;;22.53
28803;BMP280;15949;55.656;37.422;2022-08-30T07:10:16;98772.59;;;22.34
28803;BMP280;15949;55.656;37.422;2022-08-30T07:15:22;98779.75;;;22.24
28803;BMP280;15949;55.656;37.422;2022-08-30T07:20:28;98779.00;;;22.45
28803;BMP280;15949;55.656;37.422;2022-08-30T07:25:39;98786.69;;;22.54
28803;BMP280;15949;55.656;37.422;2022-08-30T07:30:45;98787.66;;;22.64
28803;BMP280;15949;55.656;37.422;2022-08-30T07:35:50;98786.88;;;22.77
28803;BMP280;15949;55.656;37.422;2022-08-30T07:40:56;98788.25;;;22.91
28803;BMP280;15949;55.656;37.422;2022-08-30T07:46:06;98789.97;;;22.81
28803;BMP280;15949;55.656;37.422;2022-08-30T07:51:15;98793.09;;;22.85
28803;BMP280;15949;55.656;37.422;2022-08-30T07:56:21;98788.53;;;23.08
28803;BMP280;15949;55.656;37.422;2022-08-30T08:01:27;98782.03;;;23.40
28803;BMP280;15949;55.656;37.422;2022-08-30T08:06:37;98776.53;;;23.68
28803;BMP280;15949;55.656;37.422;2022-08-30T08:11:43;98776.94;;;23.88
28803;BMP280;15949;55.656;37.422;2022-08-30T08:16:49;98792.78;;;24.12
28803;BMP280;15949;55.656;37.422;2022-08-30T08:21:55;98780.44;;;24.27
28803;BMP280;15949;55.656;37.422;2022-08-30T08:27:04;98781.53;;;24.62
28803;BMP280;15949;55.656;37.422;2022-08-30T08:32:10;98788.03;;;24.82
28803;BMP280;15949;55.656;37.422;2022-08-30T08:37:15;98776.75;;;25.00
28803;BMP280;15949;55.656;37.422;2022-08-30T08:42:54;98780.22;;;24.86
28803;BMP280;15949;55.656;37.422;2022-08-30T08:49:02;98776.03;;;24.92
28803;BMP280;15949;55.656;37.422;2022-08-30T08:53:47;98773.16;;;24.98
28803;BMP280;15949;55.656;37.422;2022-08-30T08:58:56;98774.81;;;25.33
28803;BMP280;15949;55.656;37.422;2022-08-30T09:04:07;98778.78;;;25.80
28803;BMP280;15949;55.656;37.422;2022-08-30T09:09:17;98790.78;;;26.10
28803;BMP280;15949;55.656;37.422;2022-08-30T09:14:28;98782.59;;;26.10
28803;BMP280;15949;55.656;37.422;2022-08-30T09:19:39;98786.41;;;26.07
28803;BMP280;15949;55.656;37.422;2022-08-30T09:30:24;98789.19;;;26.24
28803;BMP280;15949;55.656;37.422;2022-08-30T09:35:44;98787.44;;;26.19
28803;BMP280;15949;55.656;37.422;2022-08-30T09:40:53;98792.25;;;26.28
28803;BMP280;15949;55.656;37.422;2022-08-30T10:01:49;98792.19;;;26.95
28803;BMP280;15949;55.656;37.422;2022-08-30T10:07:03;98775.88;;;26.88
28803;BMP280;15949;55.656;37.422;2022-08-30T10:28:14;98787.50;;;26.88
28803;BMP280;15949;55.656;37.422;2022-08-30T10:33:26;98779.88;;;27.21
28803;BMP280;15949;55.656;37.422;2022-08-30T10:38:41;98787.72;;;27.35
28803;BMP280;15949;55.656;37.422;2022-08-30T10:44:01;98772.25;;;28.49
28803;BMP280;15949;55.656;37.422;2022-08-30T10:49:15;98771.69;;;28.70
28803;BMP280;15949;55.656;37.422;2022-08-30T10:59:53;98776.72;;;28.73
28803;BMP280;15949;55.656;37.422;2022-08-30T11:10:49;98772.78;;;29.06
28803;BMP280;15949;55.656;37.422;2022-08-30T11:21:29;98772.34;;;29.28
28803;BMP280;15949;55.656;37.422;2022-08-30T11:31:52;98763.13;;;30.07
28803;BMP280;15949;55.656;37.422;2022-08-30T11:37:00;98758.75;;;30.35
28803;BMP280;15949;55.656;37.422;2022-08-30T11:42:31;98763.09;;;30.17
28803;BMP280;15949;55.656;37.422;2022-08-30T11:47:41;98761.97;;;30.10
28803;BMP280;15949;55.656;37.422;2022-08-30T12:04:03;98749.47;;;30.40
28803;BMP280;15949;55.656;37.422;2022-08-30T12:14:51;98733.72;;;29.98
28803;BMP280;15949;55.656;37.422;2022-08-30T12:19:59;98736.41;;;30.08
28803;BMP280;15949;55.656;37.422;2022-08-30T12:25:23;98734.50;;;30.10
28803;BMP280;15949;55.656;37.422;2022-08-30T12:30:29;98725.13;;;30.46
28803;BMP280;15949;55.656;37.422;2022-08-30T12:35:35;98719.69;;;30.70
28803;BMP280;15949;55.656;37.422;2022-08-30T12:40:55;98721.03;;;30.69
28803;BMP280;15949;55.656;37.422;2022-08-30T12:46:06;98710.75;;;30.81
28803;BMP280;15949;55.656;37.422;2022-08-30T12:51:33;98717.19;;;30.74
28803;BMP280;15949;55.656;37.422;2022-08-30T12:56:49;98720.94;;;30.90
28803;BMP280;15949;55.656;37.422;2022-08-30T13:02:11;98713.56;;;30.60
28803;BMP280;15949;55.656;37.422;2022-08-30T13:07:43;98712.84;;;29.62
28803;BMP280;15949;55.656;37.422;2022-08-30T13:13:09;98695.53;;;28.59
28803;BMP280;15949;55.656;37.422;2022-08-30T13:18:24;98706.59;;;27.93
28803;BMP280;15949;55.656;37.422;2022-08-30T13:23:34;98701.78;;;27.28
28803;BMP280;15949;55.656;37.422;2022-08-30T13:33:48;98712.13;;;26.85
28803;BMP280;15949;55.656;37.422;2022-08-30T13:38:58;98717.69;;;26.78
28803;BMP280;15949;55.656;37.422;2022-08-30T13:44:04;98725.41;;;26.71
28803;BMP280;15949;55.656;37.422;2022-08-30T13:49:23;98714.25;;;26.60
28803;BMP280;15949;55.656;37.422;2022-08-30T13:54:29;98715.38;;;26.57
28803;BMP280;15949;55.656;37.422;2022-08-30T13:59:34;98703.13;;;26.92
28803;BMP280;15949;55.656;37.422;2022-08-30T14:04:40;98698.97;;;27.45
28803;BMP280;15949;55.656;37.422;2022-08-30T14:09:45;98683.91;;;27.64
28803;BMP280;15949;55.656;37.422;2022-08-30T14:14:51;98675.28;;;27.67
28803;BMP280;15949;55.656;37.422;2022-08-30T14:19:57;98676.00;;;27.68
28803;BMP280;15949;55.656;37.422;2022-08-30T14:25:03;98675.47;;;27.79
28803;BMP280;15949;55.656;37.422;2022-08-30T14:30:09;98670.81;;;27.72
28803;BMP280;15949;55.656;37.422;2022-08-30T14:35:15;98688.75;;;27.19
28803;BMP280;15949;55.656;37.422;2022-08-30T14:40:23;98683.22;;;26.82
28803;BMP280;15949;55.656;37.422;2022-08-30T14:45:28;98694.00;;;26.45
28803;BMP280;15949;55.656;37.422;2022-08-30T14:50:35;98687.59;;;26.33
28803;BMP280;15949;55.656;37.422;2022-08-30T14:55:41;98689.66;;;26.25
28803;BMP280;15949;55.656;37.422;2022-08-30T15:00:50;98691.63;;;25.90
28803;BMP280;15949;55.656;37.422;2022-08-30T15:05:56;98680.69;;;25.65
28803;BMP280;15949;55.656;37.422;2022-08-30T15:11:13;98684.84;;;25.41
28803;BMP280;15949;55.656;37.422;2022-08-30T15:16:25;98677.13;;;25.22
28803;BMP280;15949;55.656;37.422;2022-08-30T15:21:49;98673.31;;;24.85
28803;BMP280;15949;55.656;37.422;2022-08-30T15:26:55;98677.00;;;24.49
28803;BMP280;15949;55.656;37.422;2022-08-30T15:32:02;98670.50;;;24.14
28803;BMP280;15949;55.656;37.422;2022-08-30T15:37:07;98665.41;;;23.80
28803;BMP280;15949;55.656;37.422;2022-08-30T15:42:13;98674.97;;;23.51
28803;BMP280;15949;55.656;37.422;2022-08-30T15:47:20;98666.19;;;23.22
28803;BMP280;15949;55.656;37.422;2022-08-30T15:52:27;98658.69;;;22.99
28803;BMP280;15949;55.656;37.422;2022-08-30T15:57:32;98662.13;;;23.00
28803;BMP280;15949;55.656;37.422;2022-08-30T16:02:38;98655.06;;;23.04
28803;BMP280;15949;55.656;37.422;2022-08-30T16:07:44;98666.06;;;22.91
28803;BMP280;15949;55.656;37.422;2022-08-30T16:12:52;98665.28;;;22.83
28803;BMP280;15949;55.656;37.422;2022-08-30T16:17:58;98660.75;;;22.78
28803;BMP280;15949;55.656;37.422;2022-08-30T16:23:03;98662.53;;;22.75
28803;BMP280;15949;55.656;37.422;2022-08-30T16:28:09;98653.38;;;22.57
28803;BMP280;15949;55.656;37.422;2022-08-30T16:33:14;98652.88;;;22.38
28803;BMP280;15949;55.656;37.422;2022-08-30T16:38:20;98670.84;;;22.20
28803;BMP280;15949;55.656;37.422;2022-08-30T16:43:26;98655.44;;;21.94
28803;BMP280;15949;55.656;37.422;2022-08-30T16:48:31;98653.44;;;21.74
28803;BMP280;15949;55.656;37.422;2022-08-30T16:53:38;98656.91;;;21.61
28803;BMP280;15949;55.656;37.422;2022-08-30T16:58:45;98645.97;;;21.53
28803;BMP280;15949;55.656;37.422;2022-08-30T17:03:51;98649.84;;;21.45
28803;BMP280;15949;55.656;37.422;2022-08-30T17:08:56;98646.63;;;21.46
28803;BMP280;15949;55.656;37.422;2022-08-30T17:14:03;98650.91;;;21.55
28803;BMP280;15949;55.656;37.422;2022-08-30T17:19:08;98649.28;;;21.60
28803;BMP280;15949;55.656;37.422;2022-08-30T17:24:15;98640.97;;;21.58
28803;BMP280;15949;55.656;37.422;2022-08-30T17:29:21;98634.09;;;21.57
28803;BMP280;15949;55.656;37.422;2022-08-30T17:34:26;98632.91;;;21.31
28803;BMP280;15949;55.656;37.422;2022-08-30T17:39:32;98632.94;;;21.18
28803;BMP280;15949;55.656;37.422;2022-08-30T17:44:38;98632.66;;;21.08
28803;BMP280;15949;55.656;37.422;2022-08-30T17:49:44;98624.84;;;21.05
28803;BMP280;15949;55.656;37.422;2022-08-30T17:54:50;98625.59;;;21.05
28803;BMP280;15949;55.656;37.422;2022-08-30T17:59:57;98622.97;;;20.99
28803;BMP280;15949;55.656;37.422;2022-08-30T18:05:05;98616.72;;;20.91
28803;BMP280;15949;55.656;37.422;2022-08-30T18:10:11;98618.50;;;20.89
28803;BMP280;15949;55.656;37.422;2022-08-30T18:15:16;98618.22;;;20.79
28803;BMP280;15949;55.656;37.422;2022-08-30T18:20:22;98617.13;;;20.69
28803;BMP280;15949;55.656;37.422;2022-08-30T18:25:28;98625.13;;;20.61
28803;BMP280;15949;55.656;37.422;2022-08-30T18:30:33;98626.13;;;20.64
28803;BMP280;15949;55.656;37.422;2022-08-30T18:35:39;98611.31;;;20.65
28803;BMP280;15949;55.656;37.422;2022-08-30T18:40:47;98615.59;;;20.60
28803;BMP280;15949;55.656;37.422;2022-08-30T18:45:53;98601.28;;;20.46
28803;BMP280;15949;55.656;37.422;2022-08-30T18:50:59;98595.06;;;20.38
28803;BMP280;15949;55.656;37.422;2022-08-30T18:56:04;98591.72;;;20.32
28803;BMP280;15949;55.656;37.422;2022-08-30T19:01:10;98584.03;;;20.23
28803;BMP280;15949;55.656;37.422;2022-08-30T19:06:16;98575.50;;;20.19
28803;BMP280;15949;55.656;37.422;2022-08-30T19:11:22;98583.03;;;20.07
28803;BMP280;15949;55.656;37.422;2022-08-30T19:16:28;98580.00;;;19.97
28803;BMP280;15949;55.656;37.422;2022-08-30T19:21:33;98585.97;;;19.90
28803;BMP280;15949;55.656;37.422;2022-08-30T19:26:39;98579.78;;;19.95
28803;BMP280;15949;55.656;37.422;2022-08-30T19:31:46;98580.41;;;20.02
28803;BMP280;15949;55.656;37.422;2022-08-30T19:36:52;98574.25;;;20.01
28803;BMP280;15949;55.656;37.422;2022-08-30T19:41:58;98581.44;;;19.98
28803;BMP280;15949;55.656;37.422;2022-08-30T19:47:04;98601.84;;;20.00
28803;BMP280;15949;55.656;37.422;2022-08-30T19:52:10;98594.97;;;19.98
28803;BMP280;15949;55.656;37.422;2022-08-30T19:57:16;98595.38;;;20.03
28803;BMP280;15949;55.656;37.422;2022-08-30T20:02:23;98592.94;;;20.18
28803;BMP280;15949;55.656;37.422;2022-08-30T20:07:31;98595.44;;;20.29
28803;BMP280;15949;55.656;37.422;2022-08-30T20:12:39;98591.41;;;20.36
28803;BMP280;15949;55.656;37.422;2022-08-30T20:17:47;98597.34;;;20.34
28803;BMP280;15949;55.656;37.422;2022-08-30T20:22:53;98599.06;;;20.18
28803;BMP280;15949;55.656;37.422;2022-08-30T20:27:58;98596.88;;;20.04
28803;BMP280;15949;55.656;37.422;2022-08-30T20:33:04;98597.13;;;19.87
28803;BMP280;15949;55.656;37.422;2022-08-30T20:38:10;98599.47;;;19.77
28803;BMP280;15949;55.656;37.422;2022-08-30T20:43:26;98603.47;;;19.70
28803;BMP280;15949;55.656;37.422;2022-08-30T20:48:32;98605.75;;;19.66
28803;BMP280;15949;55.656;37.422;2022-08-30T20:53:38;98598.75;;;19.58
28803;BMP280;15949;55.656;37.422;2022-08-30T20:58:45;98595.97;;;19.63
28803;BMP280;15949;55.656;37.422;2022-08-30T21:03:50;98591.28;;;19.64
28803;BMP280;15949;55.656;37.422;2022-08-30T21:08:56;98589.88;;;19.63
28803;BMP280;15949;55.656;37.422;2022-08-30T21:14:02;98577.72;;;19.69
28803;BMP280;15949;55.656;37.422;2022-08-30T21:19:08;98574.19;;;19.75
28803;BMP280;15949;55.656;37.422;2022-08-30T21:24:14;98576.41;;;19.76
28803;BMP280;15949;55.656;37.422;2022-08-30T21:29:19;98573.06;;;19.70
28803;BMP280;15949;55.656;37.422;2022-08-30T21:34:25;98574.50;;;19.71
28803;BMP280;15949;55.656;37.422;2022-08-30T21:39:30;98577.06;;;19.63
28803;BMP280;15949;55.656;37.422;2022-08-30T21:44:36;98573.88;;;19.65
28803;BMP280;15949;55.656;37.422;2022-08-30T21:49:42;98564.06;;;19.62
28803;BMP280;15949;55.656;37.422;2022-08-30T21:54:47;98560.34;;;19.65
28803;BMP280;15949;55.656;37.422;2022-08-30T21:59:53;98557.84;;;19.67
28803;BMP280;15949;55.656;37.422;2022-08-30T22:04:59;98549.56;;;19.65
28803;BMP280;15949;55.656;37.422;2022-08-30T22:10:06;98549.69;;;19.54
28803;BMP280;15949;55.656;37.422;2022-08-30T22:15:14;98540.94;;;19.48
28803;BMP280;15949;55.656;37.422;2022-08-30T22:20:19;98541.38;;;19.52
28803;BMP280;15949;55.656;37.422;2022-08-30T22:25:25;98535.41;;;19.40
28803;BMP280;15949;55.656;37.422;2022-08-30T22:30:31;98540.34;;;19.17
28803;BMP280;15949;55.656;37.422;2022-08-30T22:35:36;98546.69;;;19.01
28803;BMP280;15949;55.656;37.422;2022-08-30T22:40:44;98550.56;;;18.86
28803;BMP280;15949;55.656;37.422;2022-08-30T22:45:50;98544.84;;;18.71
28803;BMP280;15949;55.656;37.422;2022-08-30T22:50:55;98538.25;;;18.66
28803;BMP280;15949;55.656;37.422;2022-08-30T22:56:13;98536.19;;;18.54
28803;BMP280;15949;55.656;37.422;2022-08-30T23:01:29;98541.13;;;18.50
28803;BMP280;15949;55.656;37.422;2022-08-30T23:06:35;98550.44;;;18.49
28803;BMP280;15949;55.656;37.422;2022-08-30T23:11:41;98557.41;;;18.38
28803;BMP280;15949;55.656;37.422;2022-08-30T23:16:46;98552.03;;;18.38
28803;BMP280;15949;55.656;37.422;2022-08-30T23:21:53;98551.44;;;18.46
28803;BMP280;15949;55.656;37.422;2022-08-30T23:26:58;98548.38;;;18.36
28803;BMP280;15949;55.656;37.422;2022-08-30T23:32:22;98551.56;;;18.34
28803;BMP280;15949;55.656;37.422;2022-08-30T23:37:47;98550.41;;;18.24
28803;BMP280;15949;55.656;37.422;2022-08-30T23:43:11;98554.13;;;18.21
28803;BMP280;15949;55.656;37.422;2022-08-30T23:48:35;98548.28;;;18.17
28803;BMP280;15949;55.656;37.422;2022-08-30T23:54:02;98550.38;;;18.00
28803;BMP280;15949;55.656;37.422;2022-08-30T23:59:26;98548.97;;;17.87
